createdAt,value
2019-04-13T00:00:45.132Z,36.63
2019-04-13T00:03:15.336Z,36.28
2019-04-13T00:06:08.765Z,33.43
2019-04-13T00:08:38.941Z,36.10
2019-04-13T00:11:30.999Z,31.20
2019-04-13T00:14:01.144Z,30.13
2019-04-13T00:16:30.860Z,29.90
2019-04-13T00:19:01.018Z,33.70
2019-04-13T00:21:30.672Z,35.77
2019-04-13T00:24:04.528Z,35.67
2019-04-13T00:26:34.342Z,41.00
2019-04-13T00:29:04.523Z,36.63
2019-04-13T00:31:34.348Z,33.13
2019-04-13T00:34:04.307Z,33.53
2019-04-13T00:36:34.196Z,33.53
2019-04-13T00:39:06.883Z,32.07
2019-04-13T00:41:36.706Z,32.83
2019-04-13T00:44:06.557Z,34.63
2019-04-13T00:46:36.770Z,32.93
2019-04-13T00:49:06.514Z,35.20
2019-04-13T00:51:36.471Z,33.70
2019-04-13T00:54:06.179Z,37.60
2019-04-13T00:56:36.112Z,32.63
2019-04-13T00:59:05.838Z,34.10
2019-04-13T01:01:35.710Z,37.57
2019-04-13T01:04:05.415Z,32.43
2019-04-13T01:06:35.167Z,34.40
2019-04-13T01:09:06.869Z,34.77
2019-04-13T01:11:37.092Z,38.40
2019-04-13T01:14:06.889Z,34.33
2019-04-13T01:16:36.802Z,34.50
2019-04-13T01:19:06.658Z,29.63
2019-04-13T01:21:36.398Z,38.73
2019-04-13T01:24:08.283Z,35.27
2019-04-13T01:26:38.131Z,36.20
2019-04-13T01:29:08.064Z,33.90
2019-04-13T01:31:37.877Z,33.30
2019-04-13T01:34:07.671Z,34.77
2019-04-13T01:36:37.732Z,35.47
2019-04-13T01:39:08.261Z,34.03
2019-04-13T01:41:37.967Z,33.20
2019-04-13T01:44:08.035Z,32.47
2019-04-13T01:46:37.768Z,35.83
2019-04-13T01:49:07.568Z,34.20
2019-04-13T01:51:37.371Z,38.53
2019-04-13T01:54:07.166Z,35.17
2019-04-13T01:56:36.985Z,34.13
2019-04-13T01:59:08.638Z,34.57
2019-04-13T02:01:55.977Z,33.67
2019-04-13T02:04:43.715Z,34.77
2019-04-13T02:12:49.398Z,38.33
2019-04-13T02:15:19.153Z,37.10
2019-04-13T02:17:48.995Z,37.67
2019-04-13T02:20:19.050Z,34.43
2019-04-13T02:22:48.927Z,37.67
2019-04-13T02:25:19.491Z,35.63
2019-04-13T02:27:49.549Z,37.00
2019-04-13T02:30:19.306Z,36.80
2019-04-13T02:32:51.797Z,37.93
2019-04-13T02:35:34.542Z,35.27
2019-04-13T02:37:55.284Z,36.50
2019-04-13T02:40:25.023Z,35.13
2019-04-13T02:42:54.821Z,39.27
2019-04-13T02:45:24.550Z,34.60
2019-04-13T02:47:54.554Z,36.90
2019-04-13T02:50:24.269Z,37.03
2019-04-13T02:52:54.057Z,35.00
2019-04-13T02:55:23.806Z,40.33
2019-04-13T02:57:53.589Z,37.10
2019-04-13T03:00:23.425Z,40.60
2019-04-13T03:02:53.745Z,47.20
2019-04-13T03:05:23.516Z,39.87
2019-04-13T03:07:53.541Z,36.30
2019-04-13T03:10:23.468Z,39.80
2019-04-13T03:12:54.299Z,35.57
2019-04-13T03:15:29.147Z,35.90
2019-04-13T03:18:06.873Z,41.33
2019-04-13T03:20:36.636Z,38.77
2019-04-13T03:23:06.410Z,35.20
2019-04-13T03:25:36.319Z,41.03
2019-04-13T03:28:06.068Z,38.07
2019-04-13T03:30:38.528Z,39.40
2019-04-13T03:33:08.361Z,36.70
2019-04-13T03:35:38.186Z,33.60
2019-04-13T03:38:07.951Z,37.30
2019-04-13T03:40:37.719Z,41.57
2019-04-13T03:43:08.488Z,43.83
2019-04-13T03:45:38.568Z,37.53
2019-04-13T03:48:08.339Z,40.10
2019-04-13T03:50:39.082Z,38.80
2019-04-13T03:53:08.944Z,36.77
2019-04-13T03:55:39.579Z,37.80
2019-04-13T03:58:09.845Z,40.10
2019-04-13T04:00:39.642Z,39.17
2019-04-13T04:03:09.816Z,43.83
2019-04-13T04:05:39.801Z,40.73
2019-04-13T04:08:09.786Z,39.33
2019-04-13T04:10:40.225Z,40.83
2019-04-13T04:13:10.439Z,39.70
2019-04-13T04:15:40.220Z,40.50
2019-04-13T04:18:10.245Z,44.17
2019-04-13T04:20:39.926Z,36.33
2019-04-13T04:23:10.108Z,41.00
2019-04-13T04:25:39.853Z,38.77
2019-04-13T04:28:09.923Z,43.53
2019-04-13T04:30:40.578Z,44.00
2019-04-13T04:33:10.530Z,39.33
2019-04-13T04:35:40.251Z,40.20
2019-04-13T04:38:10.361Z,39.03
2019-04-13T04:40:40.419Z,37.53
2019-04-13T04:43:10.519Z,41.20
2019-04-13T04:45:40.154Z,44.37
2019-04-13T04:48:10.135Z,46.40
2019-04-13T04:50:39.807Z,47.90
2019-04-13T04:53:10.836Z,52.30
2019-04-13T04:55:40.582Z,42.60
2019-04-13T04:58:10.360Z,48.53
2019-04-13T05:00:40.113Z,43.00
2019-04-13T05:03:10.024Z,49.20
2019-04-13T05:05:39.647Z,44.53
2019-04-13T05:08:11.834Z,46.10
2019-04-13T05:10:41.133Z,45.10
2019-04-13T05:13:11.508Z,43.83
2019-04-13T05:15:41.211Z,39.17
2019-04-13T05:18:11.293Z,39.97
2019-04-13T05:20:42.303Z,41.30
2019-04-13T05:23:12.556Z,43.03
2019-04-13T05:25:42.138Z,43.90
2019-04-13T05:28:12.130Z,41.77
2019-04-13T05:30:41.753Z,43.00
2019-04-13T05:33:11.754Z,42.17
2019-04-13T05:35:41.445Z,39.30
2019-04-13T05:38:11.197Z,41.90
2019-04-13T05:40:41.916Z,46.33
2019-04-13T05:43:12.244Z,44.50
2019-04-13T05:45:41.964Z,44.70
2019-04-13T05:48:13.203Z,43.30
2019-04-13T05:50:43.029Z,40.27
2019-04-13T05:53:13.207Z,42.80
2019-04-13T05:55:43.045Z,42.97
2019-04-13T05:58:14.690Z,42.23
2019-04-13T06:00:44.377Z,42.30
2019-04-13T06:03:14.903Z,45.43
2019-04-13T06:05:44.912Z,39.10
2019-04-13T06:08:14.682Z,42.03
2019-04-13T06:10:44.698Z,41.47
2019-04-13T06:13:16.335Z,41.10
2019-04-13T06:15:46.360Z,42.23
2019-04-13T06:18:21.179Z,38.50
2019-04-13T06:20:48.030Z,43.03
2019-04-13T06:23:19.553Z,41.93
2019-04-13T06:25:50.481Z,41.60
2019-04-13T06:28:20.312Z,40.47
2019-04-13T06:31:24.088Z,43.90
2019-04-13T06:33:59.284Z,44.47
2019-04-13T06:36:29.801Z,40.63
2019-04-13T06:39:00.323Z,40.00
2019-04-13T06:41:30.405Z,40.93
2019-04-13T06:44:01.384Z,40.33
2019-04-13T06:46:31.633Z,37.07
2019-04-13T06:49:01.544Z,37.50
2019-04-13T06:51:31.972Z,39.13
2019-04-13T06:54:01.855Z,38.97
2019-04-13T06:56:33.211Z,41.67
2019-04-13T06:59:02.916Z,37.73
2019-04-13T07:01:33.217Z,38.27
2019-04-13T07:04:04.340Z,44.50
2019-04-13T07:06:34.109Z,39.50
2019-04-13T07:09:26.667Z,38.60
2019-04-13T07:12:14.299Z,39.93
2019-04-13T07:14:44.679Z,43.70
2019-04-13T07:17:18.904Z,41.23
2019-04-13T07:19:49.703Z,37.73
2019-04-13T07:22:19.809Z,39.27
2019-04-13T07:24:51.172Z,38.47
2019-04-13T07:27:21.306Z,39.20
2019-04-13T07:29:53.341Z,39.03
2019-04-13T07:32:23.841Z,43.43
2019-04-13T07:34:53.746Z,39.67
2019-04-13T07:37:36.320Z,40.80
2019-04-13T07:39:56.081Z,42.60
2019-04-13T07:42:26.066Z,39.40
2019-04-13T07:45:10.625Z,40.37
2019-04-13T07:48:09.862Z,41.20
2019-04-13T07:50:52.803Z,40.17
2019-04-13T07:53:23.557Z,40.60
2019-04-13T07:55:57.541Z,42.17
2019-04-13T07:58:25.054Z,37.90
2019-04-13T08:00:58.451Z,37.63
2019-04-13T08:03:26.249Z,38.67
2019-04-13T08:05:56.085Z,38.30
2019-04-13T08:08:38.929Z,37.10
2019-04-13T08:10:57.742Z,40.90
2019-04-13T08:13:27.512Z,38.87
2019-04-13T08:15:58.077Z,36.73
2019-04-13T08:18:34.914Z,38.50
2019-04-13T08:21:05.783Z,40.97
2019-04-13T08:23:36.088Z,36.23
2019-04-13T08:26:09.055Z,34.47
2019-04-13T08:28:37.920Z,38.17
2019-04-13T08:31:07.972Z,41.33
2019-04-13T08:33:38.162Z,38.40
2019-04-13T08:36:07.870Z,35.50
2019-04-13T08:38:37.802Z,36.77
2019-04-13T08:41:11.482Z,37.00
2019-04-13T08:43:39.135Z,37.77
2019-04-13T08:46:08.990Z,34.40
2019-04-13T08:48:39.931Z,36.50
2019-04-13T08:51:15.190Z,35.07
2019-04-13T08:53:44.686Z,36.93
2019-04-13T08:56:14.544Z,35.03
2019-04-13T08:58:44.579Z,33.33
2019-04-13T09:01:15.901Z,34.03
2019-04-13T09:03:45.919Z,35.93
2019-04-13T09:06:17.216Z,35.17
2019-04-13T09:08:47.445Z,40.40
2019-04-13T09:11:20.190Z,33.40
2019-04-13T09:13:51.760Z,35.50
2019-04-13T09:16:27.601Z,33.77
2019-04-13T09:19:18.686Z,38.73
2019-04-13T09:21:53.804Z,31.87
2019-04-13T09:24:23.389Z,40.17
2019-04-13T09:26:53.142Z,37.40
2019-04-13T09:29:23.107Z,33.40
2019-04-13T09:31:52.942Z,41.07
2019-04-13T09:34:31.354Z,36.20
2019-04-13T09:36:54.081Z,34.33
2019-04-13T09:39:24.203Z,38.17
2019-04-13T09:41:54.102Z,34.40
2019-04-13T09:44:26.083Z,32.53
2019-04-13T09:46:56.647Z,40.10
2019-04-13T09:49:26.394Z,35.13
2019-04-13T09:51:59.968Z,34.83
2019-04-13T09:54:27.847Z,37.93
2019-04-13T09:56:58.635Z,34.67
2019-04-13T09:59:28.484Z,31.37
2019-04-13T10:01:58.216Z,31.70
2019-04-13T10:04:27.955Z,34.13
2019-04-13T10:06:57.782Z,35.10
2019-04-13T10:09:27.580Z,35.23
2019-04-13T10:12:21.555Z,33.70
2019-04-13T10:15:05.104Z,32.70
2019-04-13T10:17:41.460Z,35.07
2019-04-13T10:20:11.386Z,31.73
2019-04-13T10:22:41.234Z,32.40
2019-04-13T10:25:10.986Z,33.00
2019-04-13T10:27:41.136Z,31.50
2019-04-13T10:30:11.137Z,30.40
2019-04-13T10:32:40.923Z,33.10
2019-04-13T10:35:10.935Z,35.83
2019-04-13T10:37:40.989Z,36.70
2019-04-13T10:40:12.013Z,35.80
2019-04-13T10:42:42.802Z,36.13
2019-04-13T10:45:37.676Z,35.90
2019-04-13T10:48:18.541Z,34.10
2019-04-13T10:50:55.310Z,32.50
2019-04-13T10:53:25.216Z,33.90
2019-04-13T10:55:55.347Z,38.83
2019-04-13T10:58:25.681Z,36.40
2019-04-13T11:00:56.378Z,34.07
2019-04-13T11:03:26.272Z,32.33
2019-04-13T11:05:56.243Z,33.87
2019-04-13T11:08:28.286Z,35.73
2019-04-13T11:10:58.003Z,37.30
2019-04-13T11:13:29.040Z,32.33
2019-04-13T11:15:59.463Z,37.30
2019-04-13T11:18:29.232Z,37.83
2019-04-13T11:21:02.773Z,38.90
2019-04-13T11:23:36.394Z,40.50
2019-04-13T11:26:04.034Z,43.40
2019-04-13T11:28:33.870Z,41.83
2019-04-13T11:31:03.991Z,39.23
2019-04-13T11:33:33.842Z,43.00
2019-04-13T11:36:03.748Z,39.50
2019-04-13T11:38:33.503Z,38.10
2019-04-13T11:41:13.540Z,40.40
2019-04-13T11:44:06.780Z,40.93
2019-04-13T11:46:54.579Z,37.70
2019-04-13T11:49:25.619Z,39.33
2019-04-13T11:51:56.501Z,39.33
2019-04-13T11:54:28.260Z,41.87
2019-04-13T11:56:58.016Z,41.13
2019-04-13T11:59:27.827Z,42.03
2019-04-13T12:02:20.369Z,38.53
2019-04-13T12:05:14.661Z,39.50
2019-04-13T12:08:03.400Z,40.77
2019-04-13T12:10:51.062Z,41.43
2019-04-13T12:13:40.098Z,39.30
2019-04-13T12:16:21.135Z,38.57
2019-04-13T12:19:09.984Z,40.60
2019-04-13T12:22:04.983Z,37.33
2019-04-13T12:24:35.371Z,39.20
2019-04-13T12:27:05.154Z,41.57
2019-04-13T12:29:38.553Z,39.97
2019-04-13T12:32:12.089Z,40.03
2019-04-13T12:34:42.827Z,39.53
2019-04-13T12:37:13.252Z,39.73
2019-04-13T12:39:45.494Z,40.83
2019-04-13T12:42:15.460Z,40.63
2019-04-13T12:44:45.552Z,39.83
2019-04-13T12:47:18.785Z,44.87
2019-04-13T12:49:48.577Z,42.40
2019-04-13T12:52:18.980Z,44.37
2019-04-13T12:54:49.885Z,42.77
2019-04-13T12:57:20.046Z,44.00
2019-04-13T12:59:51.294Z,40.23
2019-04-13T13:02:39.699Z,38.50
2019-04-13T13:05:12.927Z,37.10
2019-04-13T13:07:42.741Z,39.83
2019-04-13T13:10:15.463Z,42.03
2019-04-13T13:12:45.808Z,40.70
2019-04-13T13:15:16.066Z,40.03
2019-04-13T13:17:46.083Z,39.37
2019-04-13T13:20:17.576Z,43.70
2019-04-13T13:22:47.493Z,37.67
2019-04-13T13:25:17.478Z,43.37
2019-04-13T13:27:47.384Z,40.73
2019-04-13T13:30:19.926Z,40.50
2019-04-13T13:32:48.676Z,45.03
2019-04-13T13:35:18.417Z,41.70
2019-04-13T13:37:48.580Z,39.97
2019-04-13T13:40:30.700Z,42.20
2019-04-13T13:42:49.832Z,40.03
2019-04-13T13:45:19.626Z,42.00
2019-04-13T13:47:49.467Z,39.00
2019-04-13T13:50:22.220Z,39.57
2019-04-13T13:52:51.884Z,43.00
2019-04-13T13:55:21.699Z,37.63
2019-04-13T13:57:59.160Z,41.37
2019-04-13T14:00:52.528Z,42.23
2019-04-13T14:03:22.638Z,40.50
2019-04-13T14:05:53.583Z,48.37
2019-04-13T14:08:23.302Z,40.57
2019-04-13T14:10:53.217Z,45.70
2019-04-13T14:13:22.918Z,43.87
2019-04-13T14:15:52.792Z,47.23
2019-04-13T14:18:24.025Z,43.43
2019-04-13T14:20:54.106Z,42.73
2019-04-13T14:23:23.739Z,46.83
2019-04-13T14:25:56.231Z,44.40
2019-04-13T14:28:26.196Z,40.97
2019-04-13T14:30:56.114Z,43.17
2019-04-13T14:33:25.910Z,43.50
2019-04-13T14:35:55.841Z,44.87
2019-04-13T14:38:26.718Z,39.37
2019-04-13T14:40:56.603Z,41.50
2019-04-13T14:43:40.531Z,40.80
2019-04-13T14:46:11.326Z,45.00
2019-04-13T14:48:41.172Z,43.70
2019-04-13T14:51:11.429Z,42.67
2019-04-13T14:53:41.111Z,46.00
2019-04-13T14:56:10.808Z,46.70
2019-04-13T14:58:43.124Z,41.83
2019-04-13T15:01:12.381Z,41.60
2019-04-13T15:03:42.194Z,42.17
2019-04-13T15:06:12.006Z,43.30
2019-04-13T15:08:43.938Z,41.50
2019-04-13T15:11:17.712Z,43.60
2019-04-13T15:13:47.083Z,41.30
2019-04-13T15:16:20.466Z,44.13
2019-04-13T15:19:08.349Z,48.97
2019-04-13T15:21:33.667Z,48.07
2019-04-13T15:24:04.789Z,46.73
2019-04-13T15:26:39.403Z,42.10
2019-04-13T15:29:07.601Z,40.40
2019-04-13T15:31:41.198Z,40.43
2019-04-13T15:34:13.882Z,38.23
2019-04-13T15:36:44.314Z,45.70
2019-04-13T15:39:20.704Z,45.20
2019-04-13T15:42:01.848Z,44.10
2019-04-13T15:44:25.097Z,44.20
2019-04-13T15:46:53.817Z,42.73
2019-04-13T15:49:23.889Z,43.53
2019-04-13T15:51:55.051Z,42.23
2019-04-13T15:54:24.936Z,47.10
2019-04-13T15:56:55.169Z,39.57
2019-04-13T15:59:26.536Z,41.70
2019-04-13T16:01:57.395Z,46.00
2019-04-13T16:04:27.433Z,43.07
2019-04-13T16:06:57.244Z,46.40
2019-04-13T16:09:45.420Z,44.97
2019-04-13T16:12:21.291Z,44.47
2019-04-13T16:14:52.602Z,39.30
2019-04-13T16:17:23.266Z,48.57
2019-04-13T16:19:54.503Z,43.20
2019-04-13T16:22:25.548Z,47.10
2019-04-13T16:24:55.369Z,45.33
2019-04-13T16:27:27.310Z,42.50
2019-04-13T16:30:25.789Z,43.70
2019-04-13T16:33:15.167Z,42.13
2019-04-13T16:35:58.638Z,44.13
2019-04-13T16:38:28.618Z,42.90
2019-04-13T16:40:58.750Z,45.17
2019-04-13T16:43:33.164Z,42.97
2019-04-13T16:46:09.409Z,46.67
2019-04-13T16:49:08.655Z,49.87
2019-04-13T16:51:39.230Z,51.70
2019-04-13T16:54:23.391Z,43.40
2019-04-13T16:57:02.698Z,46.67
2019-04-13T17:00:03.772Z,43.63
2019-04-13T17:02:58.948Z,42.87
2019-04-13T17:05:31.246Z,44.03
2019-04-13T17:08:01.358Z,47.87
2019-04-13T17:10:31.498Z,45.23
2019-04-13T17:13:01.318Z,47.90
2019-04-13T17:15:31.295Z,42.60
2019-04-13T17:18:04.045Z,39.70
2019-04-13T17:20:59.921Z,47.20
2019-04-13T17:23:54.686Z,45.27
2019-04-13T17:26:41.991Z,44.10
2019-04-13T17:29:35.966Z,43.33
2019-04-13T17:32:37.192Z,46.57
2019-04-13T17:35:13.975Z,50.23
2019-04-13T17:37:44.136Z,43.90
2019-04-13T17:40:15.936Z,44.20
2019-04-13T17:43:04.012Z,45.20
2019-04-13T17:45:48.431Z,41.00
2019-04-13T17:48:37.527Z,42.40
2019-04-13T17:51:33.109Z,38.90
2019-04-13T17:54:28.791Z,41.60
2019-04-13T17:56:59.272Z,43.50
2019-04-13T17:59:47.138Z,48.60
2019-04-13T18:02:34.246Z,48.03
2019-04-13T18:05:29.620Z,40.73
2019-04-13T18:08:33.194Z,46.43
2019-04-13T18:11:09.159Z,42.90
2019-04-13T18:13:52.846Z,43.27
2019-04-13T18:16:32.199Z,45.43
2019-04-13T18:19:10.534Z,48.00
2019-04-13T18:21:40.938Z,41.93
2019-04-13T18:24:11.409Z,43.13
2019-04-13T18:26:43.495Z,42.30
2019-04-13T18:29:13.340Z,45.07
2019-04-13T18:31:43.376Z,45.50
2019-04-13T18:34:13.132Z,43.70
2019-04-13T18:36:43.085Z,43.87
2019-04-13T18:39:13.459Z,44.80
2019-04-13T18:41:44.076Z,43.60
2019-04-13T18:44:15.792Z,39.80
2019-04-13T18:46:46.960Z,37.70
2019-04-13T18:49:18.201Z,40.77
2019-04-13T18:51:48.641Z,45.47
2019-04-13T18:54:20.319Z,41.20
2019-04-13T18:56:50.769Z,43.10
2019-04-13T18:59:21.550Z,41.00
2019-04-13T19:01:51.925Z,40.43
2019-04-13T19:04:21.885Z,38.70
2019-04-13T19:06:51.898Z,42.20
2019-04-13T19:09:21.698Z,41.17
2019-04-13T19:11:53.462Z,41.43
2019-04-13T19:14:23.187Z,42.43
2019-04-13T19:16:52.986Z,40.30
2019-04-13T19:19:23.209Z,43.23
2019-04-13T19:21:53.426Z,40.73
2019-04-13T19:24:23.419Z,38.57
2019-04-13T19:26:53.261Z,45.30
2019-04-13T19:29:23.065Z,40.87
2019-04-13T19:31:52.726Z,36.97
2019-04-13T19:34:22.806Z,43.50
2019-04-13T19:36:52.607Z,39.70
2019-04-13T19:39:22.559Z,40.03
2019-04-13T19:41:52.199Z,40.20
2019-04-13T19:44:22.185Z,42.00
2019-04-13T19:46:51.979Z,41.13
2019-04-13T19:49:21.996Z,36.23
2019-04-13T19:52:07.486Z,42.97
2019-04-13T19:54:37.505Z,40.40
2019-04-13T19:57:07.251Z,38.17
2019-04-13T19:59:39.811Z,41.13
2019-04-13T20:02:09.133Z,38.03
2019-04-13T20:04:40.107Z,40.03
2019-04-13T20:07:10.070Z,37.63
2019-04-13T20:09:40.536Z,38.17
2019-04-13T20:12:10.534Z,42.77
2019-04-13T20:14:41.511Z,34.00
2019-04-13T20:17:11.612Z,40.27
2019-04-13T20:19:41.819Z,39.80
2019-04-13T20:22:11.944Z,49.30
2019-04-13T20:24:42.698Z,41.90
2019-04-13T20:27:13.003Z,48.40
2019-04-13T20:29:42.862Z,41.90
2019-04-13T20:32:12.886Z,41.77
2019-04-13T20:34:42.580Z,37.07
2019-04-13T20:37:12.420Z,39.00
2019-04-13T20:39:48.136Z,40.20
2019-04-13T20:42:21.877Z,43.63
2019-04-13T20:44:49.708Z,41.17
2019-04-13T20:47:19.891Z,43.60
2019-04-13T20:49:51.667Z,42.90
2019-04-13T20:52:21.273Z,39.10
2019-04-13T20:54:51.642Z,47.90
2019-04-13T20:57:21.779Z,45.00
2019-04-13T20:59:54.237Z,43.10
2019-04-13T21:02:24.509Z,48.03
2019-04-13T21:04:54.531Z,41.50
2019-04-13T21:07:24.954Z,45.53
2019-04-13T21:09:54.793Z,44.00
2019-04-13T21:12:25.074Z,45.13
2019-04-13T21:14:55.199Z,45.40
2019-04-13T21:17:25.348Z,42.40
2019-04-13T21:19:55.135Z,41.37
2019-04-13T21:22:25.019Z,42.00
2019-04-13T21:24:54.820Z,44.23
2019-04-13T21:27:24.930Z,42.40
2019-04-13T21:29:54.803Z,46.27
2019-04-13T21:32:27.073Z,42.60
2019-04-13T21:34:57.903Z,44.50
2019-04-13T21:37:27.726Z,48.37
2019-04-13T21:39:57.525Z,42.30
2019-04-13T21:42:27.256Z,51.00
2019-04-13T21:44:57.283Z,43.57
2019-04-13T21:47:27.341Z,46.33
2019-04-13T21:50:02.493Z,49.60
2019-04-13T21:52:45.718Z,48.60
2019-04-13T21:55:35.407Z,42.47
2019-04-13T21:58:05.772Z,46.20
2019-04-13T22:01:08.370Z,47.53
2019-04-13T22:03:40.510Z,44.17
2019-04-13T22:06:14.508Z,44.23
2019-04-13T22:08:47.487Z,43.47
2019-04-13T22:11:17.318Z,46.57
2019-04-13T22:13:49.082Z,48.77
2019-04-13T22:16:19.004Z,47.37
2019-04-13T22:18:49.702Z,39.50
2019-04-13T22:21:19.887Z,48.07
2019-04-13T22:23:50.080Z,45.80
2019-04-13T22:26:20.050Z,41.97
2019-04-13T22:28:58.367Z,49.07
2019-04-13T22:31:57.001Z,45.37
2019-04-13T22:35:04.478Z,46.97
2019-04-13T22:37:34.821Z,53.20
2019-04-13T22:40:06.123Z,49.23
2019-04-13T22:42:36.496Z,43.17
2019-04-13T22:45:10.826Z,48.93
2019-04-13T22:47:40.709Z,50.40
2019-04-13T22:50:26.354Z,44.83
2019-04-13T22:53:19.357Z,50.13
2019-04-13T22:56:11.363Z,45.03
2019-04-13T22:58:42.269Z,50.13
2019-04-13T23:01:17.992Z,45.67
2019-04-13T23:03:48.321Z,48.10
2019-04-13T23:06:18.449Z,48.50
2019-04-13T23:08:48.823Z,48.23
2019-04-13T23:11:19.146Z,48.50
2019-04-13T23:13:49.378Z,46.87
2019-04-13T23:16:19.456Z,44.87
2019-04-13T23:18:49.919Z,48.33
2019-04-13T23:21:20.227Z,46.03
2019-04-13T23:23:50.624Z,43.57
2019-04-13T23:26:21.280Z,51.80
2019-04-13T23:28:51.145Z,46.37
2019-04-13T23:31:21.526Z,51.10
2019-04-13T23:33:52.082Z,49.97
2019-04-13T23:36:23.005Z,49.03
2019-04-13T23:38:52.937Z,47.10
2019-04-13T23:41:23.293Z,49.67
2019-04-13T23:43:54.071Z,50.80
2019-04-13T23:46:24.306Z,50.90
2019-04-13T23:48:54.806Z,50.13
2019-04-13T23:51:25.268Z,42.77
2019-04-13T23:53:55.620Z,49.93
2019-04-13T23:56:49.916Z,48.57
2019-04-13T23:59:26.921Z,50.83
